Time;durP1;ratioP1;P1;durP2;ratioP2;P2;SDS_P1;SDS_P2;PMS_P1;PMS_P2;Temp;Humidity;BMP_temperature;BMP_pressure;BME280_temperature;BME280_humidity;BME280_pressure;Samples;Min_cycle;Max_cycle;Signal;HPM_P1;HPM_P2
2022/03/23 00:00:00;;;;;;;17.25;11.98;;;10.80;95.40;;;;;;5073595;28;20365;-80
2022/03/23 00:02:26;;;;;;;23.33;13.02;;;10.80;95.50;;;;;;5074877;28;20024;-80
2022/03/23 00:04:55;;;;;;;16.65;12.10;;;10.80;95.50;;;;;;5073638;28;20025;-80
2022/03/23 00:07:21;;;;;;;20.85;12.65;;;10.80;95.50;;;;;;5074808;28;20028;-79
2022/03/23 00:09:48;;;;;;;18.38;12.90;;;10.70;95.50;;;;;;5073390;28;20032;-79
2022/03/23 00:12:14;;;;;;;20.23;12.82;;;10.70;95.50;;;;;;5074785;28;20027;-80
2022/03/23 00:14:40;;;;;;;16.42;12.40;;;10.70;95.50;;;;;;5073383;28;20107;-79
2022/03/23 00:17:05;;;;;;;21.25;13.40;;;10.70;95.50;;;;;;5074577;28;20075;-80
2022/03/23 00:19:31;;;;;;;17.45;12.60;;;10.70;95.50;;;;;;5073246;28;20058;-80
2022/03/23 00:21:57;;;;;;;21.73;13.35;;;10.70;95.50;;;;;;5092685;28;20115;-80
2022/03/23 00:24:23;;;;;;;20.20;13.02;;;10.70;95.50;;;;;;5076512;28;20399;-79
2022/03/23 00:26:48;;;;;;;21.65;12.70;;;10.70;95.50;;;;;;5076495;28;20111;-79
2022/03/23 00:29:14;;;;;;;17.38;12.60;;;10.60;95.50;;;;;;5094859;28;20032;-80
2022/03/23 00:31:40;;;;;;;19.83;12.57;;;10.70;95.50;;;;;;5076737;28;20382;-80
2022/03/23 00:34:05;;;;;;;19.58;12.60;;;10.70;95.50;;;;;;5076356;28;20024;-79
2022/03/23 00:36:31;;;;;;;15.40;11.52;;;10.60;95.50;;;;;;5077089;28;20485;-79
2022/03/23 00:38:58;;;;;;;16.38;12.10;;;10.60;95.50;;;;;;5094454;28;20020;-80
2022/03/23 00:41:23;;;;;;;16.80;11.70;;;10.60;95.60;;;;;;5076185;28;20020;-80
2022/03/23 00:43:49;;;;;;;17.30;11.77;;;10.60;95.60;;;;;;5076187;28;20035;-80
2022/03/23 00:46:15;;;;;;;21.15;12.90;;;10.60;95.60;;;;;;5076026;28;20024;-80
2022/03/23 00:48:41;;;;;;;19.10;12.20;;;10.60;95.60;;;;;;5075909;28;20024;-79
2022/03/23 00:51:07;;;;;;;18.23;11.85;;;10.60;95.60;;;;;;5075973;28;20024;-80
2022/03/23 00:53:34;;;;;;;17.33;12.13;;;10.50;95.60;;;;;;5094133;28;20069;-80
2022/03/23 00:56:00;;;;;;;19.13;12.45;;;10.50;95.60;;;;;;5075911;28;20051;-80
2022/03/23 00:58:26;;;;;;;16.75;11.52;;;10.50;95.60;;;;;;5075457;28;20407;-80
2022/03/23 01:00:51;;;;;;;15.63;11.23;;;10.50;95.60;;;;;;5075741;28;20115;-80
2022/03/23 01:03:17;;;;;;;17.83;11.18;;;10.50;95.60;;;;;;5093990;28;20020;-79
2022/03/23 01:05:43;;;;;;;19.50;12.00;;;10.50;95.60;;;;;;5093907;28;20031;-79
2022/03/23 01:08:08;;;;;;;19.58;12.77;;;10.50;95.60;;;;;;5093927;28;20494;-80
2022/03/23 01:10:34;;;;;;;19.00;10.95;;;10.50;95.60;;;;;;5093852;28;20028;-79
2022/03/23 01:13:00;;;;;;;22.92;11.93;;;10.50;95.60;;;;;;5075636;28;20463;-80
2022/03/23 01:15:26;;;;;;;17.90;11.40;;;10.40;95.60;;;;;;5093766;28;20059;-79
2022/03/23 01:17:52;;;;;;;16.40;11.20;;;10.40;95.70;;;;;;5093956;28;20042;-80
2022/03/23 01:20:22;;;;;;;17.13;12.20;;;10.40;95.60;;;;;;5093398;28;20395;-79
2022/03/23 01:22:49;;;;;;;14.95;11.30;;;10.40;95.70;;;;;;5075422;28;20550;-80
2022/03/23 01:25:15;;;;;;;17.00;11.70;;;10.40;95.70;;;;;;5075448;28;20081;-80
2022/03/23 01:27:42;;;;;;;15.60;11.45;;;10.40;95.70;;;;;;5093655;28;20028;-80
2022/03/23 01:30:11;;;;;;;19.30;11.80;;;10.40;95.70;;;;;;5093431;28;20087;-80
2022/03/23 01:32:38;;;;;;;23.98;12.07;;;10.40;95.70;;;;;;5093511;28;20111;-80
2022/03/23 01:35:05;;;;;;;20.25;11.70;;;10.30;95.70;;;;;;5075645;28;20024;-80
2022/03/23 01:37:31;;;;;;;16.98;11.75;;;10.30;95.70;;;;;;5093395;28;20031;-80
2022/03/23 01:39:57;;;;;;;18.92;12.60;;;10.30;95.70;;;;;;5075231;28;20028;-80
2022/03/23 01:42:23;;;;;;;16.40;11.63;;;10.30;95.70;;;;;;5075229;28;20051;-80
2022/03/23 01:44:49;;;;;;;16.27;11.68;;;10.30;95.70;;;;;;5075131;28;20028;-80
2022/03/23 01:47:16;;;;;;;18.48;11.45;;;10.30;95.70;;;;;;5093200;28;20024;-80
2022/03/23 01:49:52;;;;;;;19.90;11.85;;;10.20;95.70;;;;;;5093154;28;20027;-80
2022/03/23 01:52:21;;;;;;;15.60;11.45;;;10.20;95.70;;;;;;5075021;28;20031;-80
2022/03/23 01:54:46;;;;;;;17.17;11.15;;;10.30;95.80;;;;;;5075065;28;20066;-79
2022/03/23 01:57:19;;;;;;;17.45;11.57;;;10.20;95.70;;;;;;5074993;28;20055;-80
2022/03/23 01:59:45;;;;;;;22.40;11.77;;;10.20;95.70;;;;;;5075340;28;20056;-79
2022/03/23 02:02:11;;;;;;;18.63;11.20;;;10.20;95.70;;;;;;5075008;28;20089;-80
2022/03/23 02:04:37;;;;;;;19.05;11.00;;;10.20;95.80;;;;;;5093360;28;20020;-80
2022/03/23 02:07:04;;;;;;;20.23;12.10;;;10.20;95.80;;;;;;5075018;28;20485;-80
2022/03/23 02:09:31;;;;;;;18.55;11.38;;;10.20;95.80;;;;;;5074878;28;20395;-80
2022/03/23 02:11:57;;;;;;;17.48;11.48;;;10.20;96.10;;;;;;5078559;28;20016;-80
2022/03/23 02:14:23;;;;;;;18.10;11.90;;;10.30;96.20;;;;;;5097347;28;20364;-80
2022/03/23 02:16:51;;;;;;;16.23;10.98;;;10.20;96.90;;;;;;5079069;28;20024;-80
2022/03/23 02:19:18;;;;;;;18.52;11.43;;;10.20;97.90;;;;;;5097244;28;20387;-80
2022/03/23 02:21:53;;;;;;;18.40;11.63;;;10.20;98.90;;;;;;5078741;28;20040;-80
2022/03/23 02:24:22;;;;;;;18.85;11.48;;;10.30;99.90;;;;;;5097069;28;20035;-80
2022/03/23 02:26:48;;;;;;;20.92;12.13;;;10.20;99.90;;;;;;5078795;28;20391;-80
2022/03/23 02:29:15;;;;;;;15.95;11.63;;;10.20;99.90;;;;;;5078667;28;20028;-80
2022/03/23 02:31:40;;;;;;;18.90;11.20;;;10.20;99.90;;;;;;5097011;28;20111;-80
2022/03/23 02:34:06;;;;;;;15.20;11.35;;;10.20;95.90;;;;;;5096805;28;20070;-80
2022/03/23 02:36:32;;;;;;;15.90;11.10;;;10.10;96.20;;;;;;5097020;28;20020;-80
2022/03/23 02:38:57;;;;;;;19.23;10.98;;;10.10;95.90;;;;;;5097000;28;20474;-80
2022/03/23 02:41:23;;;;;;;17.90;10.70;;;10.00;95.90;;;;;;5096708;28;20061;-79
2022/03/23 02:43:49;;;;;;;17.98;11.18;;;10.00;99.90;;;;;;5078393;28;20433;-80
2022/03/23 02:46:19;;;;;;;16.30;11.07;;;10.10;99.90;;;;;;5096579;28;20028;-80
2022/03/23 02:48:47;;;;;;;15.82;11.25;;;10.00;97.90;;;;;;5078423;28;20027;-80
2022/03/23 02:51:14;;;;;;;17.30;11.40;;;10.00;97.30;;;;;;5096471;28;20020;-80
2022/03/23 03:02:39;;;;;;;15.13;10.60;;;9.90;96.30;;;;;;5096653;28;20441;-80
2022/03/23 03:05:06;;;;;;;15.20;10.48;;;9.90;96.10;;;;;;5078070;28;20027;-79
2022/03/23 03:08:44;;;;;;;17.98;10.75;;;9.90;97.40;;;;;;5078060;28;20028;-80
2022/03/23 03:10:21;;;;;;;15.90;11.32;;;;;;;;;;5095931;28;20028;-80
2022/03/23 03:12:47;;;;;;;17.60;11.27;;;9.90;99.90;;;;;;5096110;28;20552;-80
2022/03/23 03:15:14;;;;;;;16.90;10.93;;;9.90;96.00;;;;;;5096111;28;20024;-79
2022/03/23 03:17:41;;;;;;;19.30;11.10;;;9.90;96.00;;;;;;5077906;28;20487;-80
2022/03/23 03:20:07;;;;;;;14.45;10.70;;;9.80;96.00;;;;;;5077629;28;20064;-80
2022/03/23 03:22:34;;;;;;;15.25;10.27;;;9.80;96.00;;;;;;5096060;28;20020;-80
2022/03/23 03:25:01;;;;;;;14.43;11.18;;;9.80;96.00;;;;;;5095863;28;20016;-80
2022/03/23 03:27:27;;;;;;;17.98;10.98;;;9.80;96.00;;;;;;5095930;28;20103;-80
2022/03/23 03:29:52;;;;;;;16.85;11.40;;;9.80;96.00;;;;;;5095777;28;20107;-80
2022/03/23 03:32:18;;;;;;;14.98;10.25;;;9.80;96.10;;;;;;5077619;28;20024;-80
2022/03/23 03:35:27;;;;;;;17.02;10.70;;;9.80;96.10;;;;;;5077714;28;20103;-80
2022/03/23 03:37:54;;;;;;;15.25;11.27;;;9.80;96.10;;;;;;5095757;28;20016;-79
2022/03/23 03:40:19;;;;;;;16.50;10.23;;;9.80;99.90;;;;;;5077513;28;20034;-80
2022/03/23 03:42:45;;;;;;;14.55;10.68;;;9.90;96.40;;;;;;5095861;28;20107;-80
2022/03/23 03:45:11;;;;;;;13.75;10.45;;;9.70;96.10;;;;;;5077422;28;20024;-80
2022/03/23 03:47:36;;;;;;;15.07;10.27;;;9.70;96.10;;;;;;5095777;28;20047;-80
2022/03/23 03:50:03;;;;;;;15.52;10.98;;;9.70;96.10;;;;;;5077208;28;20076;-80
2022/03/23 03:52:28;;;;;;;16.50;11.00;;;9.70;96.10;;;;;;5077614;28;20040;-80
2022/03/23 03:54:54;;;;;;;15.93;9.98;;;9.70;96.10;;;;;;5077228;28;20510;-80
2022/03/23 03:57:20;;;;;;;17.98;10.73;;;9.70;96.10;;;;;;5095297;28;20051;-80
2022/03/23 03:59:45;;;;;;;20.08;11.52;;;9.70;96.10;;;;;;5077029;28;20506;-80
2022/03/23 04:02:11;;;;;;;19.98;11.18;;;9.70;96.10;;;;;;5077055;28;20391;-80
2022/03/23 04:04:37;;;;;;;15.98;10.60;;;9.70;96.10;;;;;;5095442;28;20020;-80
2022/03/23 04:07:04;;;;;;;15.40;10.90;;;9.70;96.10;;;;;;5076933;28;20062;-80
2022/03/23 04:09:30;;;;;;;15.85;10.30;;;9.60;96.00;;;;;;5076767;28;20024;-80
2022/03/23 04:11:55;;;;;;;18.08;10.88;;;9.60;96.00;;;;;;5076926;28;20035;-80
2022/03/23 04:14:21;;;;;;;15.57;10.70;;;9.60;96.00;;;;;;5095000;28;20024;-80
2022/03/23 04:16:46;;;;;;;14.90;10.90;;;9.60;96.10;;;;;;5076760;28;20077;-80
2022/03/23 04:19:12;;;;;;;15.50;10.85;;;9.60;96.00;;;;;;5094840;28;20028;-80
2022/03/23 04:21:38;;;;;;;15.88;10.43;;;9.60;96.10;;;;;;5076482;28;20052;-80
2022/03/23 04:24:04;;;;;;;14.75;9.82;;;9.60;96.10;;;;;;5076564;28;20105;-80
2022/03/23 04:26:29;;;;;;;16.20;10.73;;;9.60;96.00;;;;;;5076412;28;20031;-80
2022/03/23 04:28:55;;;;;;;14.55;10.27;;;9.60;96.00;;;;;;5076425;28;20027;-80
2022/03/23 04:31:20;;;;;;;16.85;10.68;;;9.60;96.10;;;;;;5076462;28;20024;-80
2022/03/23 04:33:46;;;;;;;15.55;10.57;;;9.50;96.00;;;;;;5075710;28;20056;-80
2022/03/23 04:36:13;;;;;;;14.43;10.90;;;9.60;96.10;;;;;;5076393;28;20395;-80
2022/03/23 04:38:39;;;;;;;15.13;9.98;;;9.60;96.10;;;;;;5076281;28;20458;-80
2022/03/23 04:41:04;;;;;;;18.63;10.27;;;9.50;96.00;;;;;;5076359;28;20051;-80
2022/03/23 04:43:31;;;;;;;13.65;10.25;;;9.60;96.10;;;;;;5076275;28;20073;-80
2022/03/23 04:45:57;;;;;;;15.43;10.48;;;9.50;96.00;;;;;;5094390;28;20035;-80
2022/03/23 04:48:24;;;;;;;16.88;11.27;;;9.50;96.10;;;;;;5076150;28;20020;-80
2022/03/23 04:50:49;;;;;;;15.98;10.35;;;9.50;96.00;;;;;;5075997;28;20031;-80
2022/03/23 04:53:16;;;;;;;12.85;9.30;;;9.50;96.10;;;;;;5094179;28;20020;-80
2022/03/23 04:55:41;;;;;;;13.07;10.15;;;9.50;96.10;;;;;;5094151;28;20027;-80
2022/03/23 04:58:07;;;;;;;15.25;10.15;;;9.50;96.10;;;;;;5094070;28;20116;-80
2022/03/23 05:00:34;;;;;;;18.25;9.93;;;9.40;96.60;;;;;;5075848;28;20483;-80
2022/03/23 05:03:00;;;;;;;18.85;10.32;;;9.50;96.10;;;;;;5094197;28;20024;-80
2022/03/23 05:05:26;;;;;;;15.93;10.85;;;9.40;99.20;;;;;;5075784;28;20035;-80
2022/03/23 05:07:52;;;;;;;13.57;10.93;;;9.50;96.20;;;;;;5075631;28;20027;-80
2022/03/23 05:10:18;;;;;;;17.00;10.05;;;9.40;96.10;;;;;;5094099;28;20051;-80
2022/03/23 05:12:44;;;;;;;16.05;10.65;;;9.40;96.10;;;;;;5093861;28;20092;-80
2022/03/23 05:15:11;;;;;;;17.73;10.68;;;9.40;96.10;;;;;;5093773;28;20043;-80
2022/03/23 05:17:38;;;;;;;14.45;9.73;;;9.40;99.90;;;;;;5075467;28;20471;-80
2022/03/23 05:20:04;;;;;;;14.38;10.50;;;9.40;96.10;;;;;;5093417;28;20107;-80
2022/03/23 05:22:31;;;;;;;15.90;10.73;;;9.40;96.10;;;;;;5075423;28;20028;-80
2022/03/23 05:24:56;;;;;;;14.07;10.57;;;9.40;96.10;;;;;;5075450;28;20024;-80
2022/03/23 05:27:22;;;;;;;17.48;11.35;;;9.50;97.20;;;;;;5075346;28;20031;-80
2022/03/23 05:29:48;;;;;;;15.75;10.25;;;9.40;96.90;;;;;;5075328;28;20032;-80
2022/03/23 05:32:17;;;;;;;18.42;10.60;;;9.50;97.10;;;;;;5093515;28;20016;-80
2022/03/23 05:34:48;;;;;;;16.73;10.48;;;9.40;97.30;;;;;;5075370;28;20372;-80
2022/03/23 05:37:17;;;;;;;16.45;11.18;;;9.50;97.30;;;;;;5093433;28;20019;-80
2022/03/23 05:39:44;;;;;;;17.33;10.90;;;9.40;97.20;;;;;;5075195;28;20131;-80
2022/03/23 05:42:09;;;;;;;16.63;10.73;;;9.40;97.20;;;;;;5075169;28;20108;-80
2022/03/23 05:44:36;;;;;;;16.23;10.27;;;9.40;96.10;;;;;;5093345;28;20058;-80
2022/03/23 05:47:02;;;;;;;16.23;11.63;;;9.30;96.00;;;;;;5075102;28;20096;-80
2022/03/23 05:49:28;;;;;;;18.92;10.77;;;9.30;96.10;;;;;;5075011;28;20028;-80
2022/03/23 05:51:54;;;;;;;20.38;11.68;;;9.30;96.00;;;;;;5093250;28;20095;-80
2022/03/23 05:54:20;;;;;;;18.60;12.05;;;9.30;96.00;;;;;;5075871;28;20511;-80
2022/03/23 05:56:46;;;;;;;19.45;12.10;;;9.30;96.10;;;;;;5075167;28;20024;-80
2022/03/23 05:59:12;;;;;;;15.27;11.52;;;9.30;96.10;;;;;;5075085;28;20078;-79
2022/03/23 06:01:37;;;;;;;17.10;11.13;;;9.30;96.00;;;;;;5075037;28;20465;-80
2022/03/23 06:04:03;;;;;;;16.45;10.45;;;9.30;96.00;;;;;;5093026;28;20031;-80
2022/03/23 06:06:29;;;;;;;17.80;10.63;;;9.30;96.00;;;;;;5075046;28;20126;-80
2022/03/23 06:08:55;;;;;;;19.45;10.75;;;9.30;96.10;;;;;;5092987;28;20047;-79
2022/03/23 06:11:21;;;;;;;15.75;11.00;;;9.30;96.10;;;;;;5074947;28;20016;-79
2022/03/23 06:13:47;;;;;;;15.50;11.00;;;9.30;97.80;;;;;;5093016;28;20024;-81
2022/03/23 06:16:12;;;;;;;18.88;10.93;;;9.40;98.40;;;;;;5074841;28;20020;-81
2022/03/23 06:18:38;;;;;;;16.17;11.38;;;9.40;98.20;;;;;;5074765;28;20016;-81
2022/03/23 06:21:04;;;;;;;18.10;11.07;;;9.50;97.80;;;;;;5074673;28;20120;-81
2022/03/23 06:23:33;;;;;;;16.83;11.02;;;9.50;97.80;;;;;;5074703;28;20030;-81
2022/03/23 06:25:59;;;;;;;15.35;10.70;;;9.50;97.60;;;;;;5074806;28;20031;-82
2022/03/23 06:28:25;;;;;;;18.92;11.73;;;9.50;97.40;;;;;;5074686;28;20021;-81
2022/03/23 06:30:51;;;;;;;18.80;11.15;;;9.50;96.10;;;;;;5092855;28;20387;-80
2022/03/23 06:33:19;;;;;;;16.23;11.13;;;9.50;96.00;;;;;;5092911;28;20487;-81
2022/03/23 06:35:45;;;;;;;17.30;10.80;;;9.50;96.00;;;;;;5074778;28;20074;-81
2022/03/23 06:38:14;;;;;;;16.20;11.73;;;9.50;96.00;;;;;;5092957;28;20031;-81
2022/03/23 06:40:40;;;;;;;18.85;11.50;;;9.60;96.00;;;;;;5074745;28;20031;-81
2022/03/23 06:43:05;;;;;;;16.70;10.20;;;9.60;96.00;;;;;;5074735;28;20488;-80
2022/03/23 06:45:31;;;;;;;17.45;10.43;;;9.60;96.00;;;;;;5092831;28;20077;-81
2022/03/23 06:47:58;;;;;;;17.08;10.20;;;9.70;96.00;;;;;;5074579;28;20030;-81
2022/03/23 06:50:24;;;;;;;13.95;10.10;;;9.70;96.00;;;;;;5074410;28;20073;-81
2022/03/23 06:52:49;;;;;;;13.65;9.90;;;9.80;96.00;;;;;;5074497;28;20473;-80
2022/03/23 06:55:15;;;;;;;14.00;10.18;;;9.80;96.00;;;;;;5074615;28;20031;-81
2022/03/23 06:57:41;;;;;;;15.27;10.07;;;9.80;95.90;;;;;;5077393;28;20024;-81
2022/03/23 07:00:13;;;;;;;19.77;10.38;;;9.90;95.90;;;;;;5078189;28;20483;-80
2022/03/23 07:02:47;;;;;;;14.68;11.00;;;9.90;95.90;;;;;;5096677;28;20024;-80
2022/03/23 07:05:14;;;;;;;16.70;10.20;;;10.00;95.90;;;;;;5078334;28;20364;-80
2022/03/23 07:10:25;;;;;;;16.85;9.60;;;10.10;95.80;;;;;;5096608;28;20035;-80
2022/03/23 07:12:50;;;;;;;19.02;10.07;;;10.10;95.80;;;;;;5096302;28;20024;-80
2022/03/23 07:15:16;;;;;;;17.25;10.63;;;10.10;96.10;;;;;;5078116;28;20035;-80
2022/03/23 07:17:42;;;;;;;14.77;9.50;;;10.20;95.80;;;;;;5077822;28;20073;-80
2022/03/23 07:20:08;;;;;;;15.98;10.43;;;10.20;95.80;;;;;;5095795;28;20118;-80
2022/03/23 07:22:34;;;;;;;14.80;10.15;;;10.20;95.80;;;;;;5077786;28;20111;-80
2022/03/23 07:25:00;;;;;;;12.82;9.35;;;10.30;95.80;;;;;;5077676;28;20197;-80
2022/03/23 07:27:29;;;;;;;14.95;10.18;;;10.30;95.80;;;;;;5077700;28;20134;-80
2022/03/23 07:29:54;;;;;;;16.13;10.68;;;10.40;95.80;;;;;;5095804;28;20028;-80
2022/03/23 07:32:20;;;;;;;12.68;9.35;;;10.40;95.80;;;;;;5077600;28;20387;-80
2022/03/23 07:34:46;;;;;;;14.40;10.30;;;10.40;95.70;;;;;;5077553;28;20024;-80
2022/03/23 07:37:11;;;;;;;12.73;8.98;;;10.50;95.80;;;;;;5077556;28;20024;-80
2022/03/23 07:39:37;;;;;;;12.07;8.98;;;10.50;95.80;;;;;;5077835;28;20020;-80
2022/03/23 07:42:05;;;;;;;15.15;9.93;;;10.50;95.80;;;;;;5077412;28;20048;-80
2022/03/23 07:44:32;;;;;;;13.25;9.10;;;10.60;95.80;;;;;;5077401;28;20028;-80
2022/03/23 07:46:58;;;;;;;12.77;8.93;;;10.60;95.80;;;;;;5078130;28;20016;-79
2022/03/23 07:49:24;;;;;;;13.82;8.93;;;10.70;95.80;;;;;;5095617;28;20107;-79
2022/03/23 07:51:50;;;;;;;15.25;9.55;;;10.70;95.70;;;;;;5095419;28;20146;-80
2022/03/23 07:54:16;;;;;;;13.13;8.95;;;10.70;95.70;;;;;;5077156;28;20089;-80
2022/03/23 07:56:41;;;;;;;15.40;9.77;;;10.80;96.10;;;;;;5095338;28;20063;-79
2022/03/23 07:59:07;;;;;;;15.75;9.43;;;10.80;95.70;;;;;;5077030;28;20020;-80
2022/03/23 08:01:33;;;;;;;11.98;8.82;;;10.90;95.70;;;;;;5095174;28;20024;-79
2022/03/23 08:04:00;;;;;;;15.52;9.93;;;10.90;95.70;;;;;;5077006;28;20118;-80
2022/03/23 08:06:26;;;;;;;11.57;8.73;;;11.00;95.60;;;;;;5076910;28;20024;-80
2022/03/23 08:08:52;;;;;;;14.55;8.95;;;11.00;95.60;;;;;;5075729;28;20047;-79
2022/03/23 08:11:21;;;;;;;12.85;8.93;;;11.00;95.70;;;;;;5076777;28;20063;-79
2022/03/23 08:13:47;;;;;;;15.10;8.73;;;11.10;95.60;;;;;;5076793;28;20110;-79
2022/03/23 08:16:13;;;;;;;13.32;8.50;;;11.10;95.60;;;;;;5076756;28;20456;-80
2022/03/23 08:18:39;;;;;;;14.02;9.07;;;11.10;95.60;;;;;;5076653;28;20441;-79
2022/03/23 08:21:05;;;;;;;13.77;8.88;;;11.10;95.50;;;;;;5094587;28;20071;-79
2022/03/23 08:23:31;;;;;;;13.25;8.65;;;11.20;95.50;;;;;;5094733;28;20051;-79
2022/03/23 08:25:57;;;;;;;15.32;8.57;;;11.20;95.40;;;;;;5076516;28;20391;-79
2022/03/23 08:28:23;;;;;;;18.52;8.90;;;11.30;95.40;;;;;;5076592;28;20020;-79
2022/03/23 08:30:49;;;;;;;12.77;8.77;;;11.30;95.40;;;;;;5094494;28;20119;-79
2022/03/23 08:33:15;;;;;;;15.70;9.07;;;11.30;95.30;;;;;;5094432;28;20043;-80
2022/03/23 08:35:41;;;;;;;12.88;8.65;;;11.40;95.40;;;;;;5076245;28;20024;-80
2022/03/23 08:38:07;;;;;;;14.02;8.77;;;11.40;95.30;;;;;;5076255;28;20031;-80
2022/03/23 08:40:34;;;;;;;14.82;8.82;;;11.40;95.30;;;;;;5076254;28;20467;-80
2022/03/23 08:43:01;;;;;;;13.25;8.38;;;11.40;95.30;;;;;;5094324;28;20478;-80
2022/03/23 08:45:27;;;;;;;13.05;8.85;;;11.50;95.30;;;;;;5094267;28;20420;-79
2022/03/23 08:47:54;;;;;;;12.15;8.15;;;11.50;95.30;;;;;;5076096;28;20376;-79
2022/03/23 08:50:20;;;;;;;13.77;8.60;;;11.60;95.20;;;;;;5094268;28;20528;-79
2022/03/23 08:52:46;;;;;;;11.52;8.85;;;11.60;95.20;;;;;;5076091;28;20387;-79
2022/03/23 08:55:14;;;;;;;13.50;9.05;;;11.70;95.20;;;;;;5076008;28;20016;-80
2022/03/23 08:57:42;;;;;;;15.02;8.93;;;11.70;95.20;;;;;;5076009;28;20391;-79
2022/03/23 09:00:08;;;;;;;12.13;7.90;;;11.70;95.10;;;;;;5094074;28;20023;-79
2022/03/23 09:02:34;;;;;;;16.02;9.13;;;11.80;95.00;;;;;;5075647;28;20024;-80
2022/03/23 09:04:59;;;;;;;12.40;8.13;;;11.80;95.00;;;;;;5076047;28;20501;-79
2022/03/23 09:07:25;;;;;;;14.93;9.63;;;11.90;95.00;;;;;;5094160;28;20107;-79
2022/03/23 09:09:51;;;;;;;14.45;9.23;;;11.90;94.90;;;;;;5093961;28;20488;-80
2022/03/23 09:12:16;;;;;;;13.20;9.02;;;11.90;94.80;;;;;;5075792;28;20070;-80
2022/03/23 09:14:42;;;;;;;16.40;9.52;;;12.00;94.70;;;;;;5093930;28;20546;-80
2022/03/23 09:17:08;;;;;;;15.02;9.43;;;12.00;94.70;;;;;;5093942;28;20020;-79
2022/03/23 09:19:34;;;;;;;15.65;8.65;;;12.00;94.60;;;;;;5075403;28;20028;-79
2022/03/23 09:22:00;;;;;;;16.15;8.82;;;12.10;94.70;;;;;;5093648;28;20052;-80
2022/03/23 09:24:27;;;;;;;13.30;8.93;;;12.10;94.60;;;;;;5075653;28;20035;-80
2022/03/23 09:26:54;;;;;;;12.15;8.73;;;12.10;94.60;;;;;;5075580;28;20112;-80
2022/03/23 09:29:20;;;;;;;16.40;9.25;;;12.20;94.50;;;;;;5075438;28;20475;-79
2022/03/23 09:31:46;;;;;;;15.48;9.23;;;12.20;94.40;;;;;;5075508;28;20023;-80
2022/03/23 09:34:12;;;;;;;18.15;11.63;;;12.20;94.40;;;;;;5075543;28;20054;-80
2022/03/23 09:39:21;;;;;;;50.40;14.27;;;13.10;93.30;;;;;;5094957;28;20080;-80
2022/03/23 09:41:48;;;;;;;52.20;15.30;;;13.70;92.50;;;;;;5075173;28;20432;-80
2022/03/23 09:44:15;;;;;;;41.42;14.63;;;13.70;92.40;;;;;;5093246;28;20386;-80
2022/03/23 09:46:42;;;;;;;39.30;14.10;;;13.50;92.50;;;;;;5075070;28;20031;-80
2022/03/23 09:49:08;;;;;;;34.28;12.82;;;13.40;92.70;;;;;;5074991;28;20024;-80
2022/03/23 09:51:36;;;;;;;26.85;13.35;;;13.30;92.80;;;;;;5075040;28;20107;-79
2022/03/23 09:54:03;;;;;;;38.13;13.30;;;13.20;92.90;;;;;;5093142;28;20103;-80
2022/03/23 09:56:29;;;;;;;31.65;12.45;;;13.10;93.00;;;;;;5074920;28;20028;-79
2022/03/23 09:58:55;;;;;;;30.73;12.15;;;13.10;93.10;;;;;;5093027;28;20048;-79
2022/03/23 10:01:30;;;;;;;24.10;12.00;;;13.10;93.10;;;;;;5093110;28;20058;-80
2022/03/23 10:04:05;;;;;;;28.67;11.65;;;13.10;93.20;;;;;;5074873;28;20024;-80
2022/03/23 10:06:58;;;;;;;26.63;11.38;;;13.10;93.10;;;;;;5074881;28;20110;-80
2022/03/23 10:09:33;;;;;;;20.40;11.32;;;13.10;93.20;;;;;;5093247;28;20024;-79
2022/03/23 10:12:36;;;;;;;25.92;11.15;;;13.20;93.10;;;;;;5074853;28;20020;-80
2022/03/23 10:15:39;;;;;;;23.67;11.38;;;13.10;93.20;;;;;;5074726;28;20119;-79
2022/03/23 10:18:23;;;;;;;20.77;10.60;;;13.10;93.00;;;;;;5074621;28;20021;-80
2022/03/23 10:20:49;;;;;;;22.25;10.95;;;13.10;92.80;;;;;;5071258;28;20070;-80
2022/03/23 10:23:20;;;;;;;23.80;9.95;;;13.10;92.90;;;;;;5072964;28;20039;-80
2022/03/23 10:25:46;;;;;;;21.58;10.23;;;13.20;92.90;;;;;;5088208;28;20028;-79
2022/03/23 10:28:17;;;;;;;24.45;9.55;;;13.10;92.90;;;;;;5071326;28;20028;-80
2022/03/23 10:30:44;;;;;;;23.52;9.80;;;13.10;92.90;;;;;;5088108;28;20556;-80
2022/03/23 10:33:24;;;;;;;14.48;9.07;;;13.20;92.60;;;;;;5092100;28;20020;-80
2022/03/23 10:35:51;;;;;;;17.45;9.15;;;13.20;92.50;;;;;;5092506;28;20031;-79
2022/03/23 10:38:18;;;;;;;14.80;9.52;;;13.20;92.50;;;;;;5076749;28;20029;-80
2022/03/23 10:40:46;;;;;;;15.18;8.45;;;13.20;92.40;;;;;;5092328;28;20037;-80
2022/03/23 10:43:15;;;;;;;16.25;9.30;;;13.20;92.40;;;;;;5092421;28;20434;-80
2022/03/23 10:45:41;;;;;;;14.70;8.90;;;13.20;92.40;;;;;;5092288;28;20029;-80
2022/03/23 10:48:18;;;;;;;14.30;8.73;;;13.20;92.40;;;;;;5092299;28;20063;-80
2022/03/23 10:50:57;;;;;;;14.48;8.32;;;13.20;92.20;;;;;;5076339;28;20021;-80
2022/03/23 10:53:36;;;;;;;16.75;8.30;;;13.30;92.10;;;;;;5091861;28;20021;-80
2022/03/23 10:56:03;;;;;;;12.27;7.80;;;13.30;92.10;;;;;;5076237;28;20021;-80
2022/03/23 11:01:59;;;;;;;13.88;7.88;;;13.40;92.00;;;;;;5076435;28;20072;-79
2022/03/23 11:04:30;;;;;;;14.27;7.70;;;13.40;92.00;;;;;;5075990;28;20504;-80
2022/03/23 11:07:00;;;;;;;14.20;7.80;;;13.40;91.80;;;;;;5076050;28;20027;-80
2022/03/23 11:18:11;;;;;;;13.55;7.38;;;13.50;91.20;;;;;;5076377;28;20104;-81
2022/03/23 11:20:56;;;;;;;11.43;7.18;;;13.50;90.90;;;;;;5091581;28;20060;-80
2022/03/23 11:23:25;;;;;;;10.80;7.50;;;13.50;91.00;;;;;;5091658;28;20029;-80
2022/03/23 11:25:53;;;;;;;10.40;6.95;;;13.50;91.00;;;;;;5075872;28;20028;-80
2022/03/23 11:28:20;;;;;;;14.98;7.05;;;13.50;91.00;;;;;;5075845;28;20025;-80
2022/03/23 11:30:47;;;;;;;11.30;6.50;;;13.50;90.90;;;;;;5075570;28;20021;-80
2022/03/23 11:33:21;;;;;;;11.18;7.38;;;13.60;91.00;;;;;;5075552;28;20025;-79
2022/03/23 11:35:50;;;;;;;11.25;6.82;;;13.50;90.60;;;;;;5075501;28;20027;-80
2022/03/23 11:38:26;;;;;;;9.45;6.38;;;13.60;90.70;;;;;;5091010;28;20032;-80
2022/03/23 11:40:53;;;;;;;10.05;6.75;;;13.60;90.60;;;;;;5091306;28;20029;-80
2022/03/23 11:43:25;;;;;;;9.98;6.75;;;13.60;90.30;;;;;;5091018;28;20024;-80
2022/03/23 11:45:53;;;;;;;9.43;6.47;;;13.70;90.50;;;;;;5075516;28;20361;-80
2022/03/23 11:48:46;;;;;;;13.45;6.25;;;13.70;90.60;;;;;;5091040;28;20024;-80
2022/03/23 11:51:31;;;;;;;8.25;5.93;;;13.70;90.20;;;;;;5090894;28;20529;-80
2022/03/23 11:54:24;;;;;;;10.88;6.68;;;13.70;90.10;;;;;;5091611;28;20375;-80
2022/03/23 11:56:58;;;;;;;9.30;6.18;;;13.70;90.10;;;;;;5075321;28;20055;-80
2022/03/23 11:59:28;;;;;;;10.10;6.22;;;13.70;89.90;;;;;;5074039;28;20021;-80
2022/03/23 12:01:55;;;;;;;9.68;6.15;;;13.70;89.90;;;;;;5090472;28;20395;-80
2022/03/23 12:04:28;;;;;;;9.32;5.80;;;13.80;88.50;;;;;;5090399;28;20021;-80
2022/03/23 12:07:06;;;;;;;10.02;5.80;;;13.80;88.70;;;;;;5074898;28;20023;-80
2022/03/23 12:09:44;;;;;;;8.20;5.63;;;13.80;89.00;;;;;;5090306;28;20029;-80
2022/03/23 12:12:49;;;;;;;9.50;5.82;;;13.80;89.00;;;;;;5074873;28;20021;-80
2022/03/23 12:15:23;;;;;;;9.45;5.68;;;13.80;89.30;;;;;;4996910;28;20022;-80
2022/03/23 12:17:58;;;;;;;8.43;5.60;;;13.80;88.50;;;;;;5064706;28;20024;-80
2022/03/23 12:20:28;;;;;;;11.85;5.55;;;13.90;87.90;;;;;;5090198;28;20147;-80
2022/03/23 12:23:02;;;;;;;9.80;5.32;;;13.90;88.00;;;;;;5090372;28;20032;-80
2022/03/23 12:25:40;;;;;;;10.38;5.35;;;13.90;87.90;;;;;;5074877;28;20497;-80
2022/03/23 12:28:31;;;;;;;9.45;5.97;;;14.00;87.00;;;;;;5074751;28;20503;-80
2022/03/23 12:30:57;;;;;;;10.73;5.20;;;14.00;87.80;;;;;;5090154;28;20029;-80
2022/03/23 12:33:26;;;;;;;7.53;4.97;;;14.10;86.90;;;;;;5074531;28;20031;-80
2022/03/23 12:35:52;;;;;;;11.57;5.53;;;14.10;86.40;;;;;;5089874;28;20054;-80
2022/03/23 12:38:25;;;;;;;7.65;4.95;;;14.20;86.40;;;;;;5089901;28;20495;-80
2022/03/23 12:40:51;;;;;;;8.23;5.38;;;14.20;85.90;;;;;;5074199;28;20020;-80
2022/03/23 12:43:46;;;;;;;8.07;5.07;;;14.30;86.10;;;;;;5089979;28;20036;-81
2022/03/23 12:46:26;;;;;;;8.68;4.90;;;14.30;85.60;;;;;;5090017;28;20034;-80
2022/03/23 13:00:26;;;;;;;9.98;4.90;;;14.70;84.60;;;;;;5074625;28;20078;-80
2022/03/23 13:03:04;;;;;;;8.68;4.63;;;14.80;85.10;;;;;;5089543;28;20078;-80
2022/03/23 13:05:31;;;;;;;7.72;5.05;;;14.80;84.80;;;;;;5089206;28;20029;-80
2022/03/23 13:07:57;;;;;;;11.32;4.88;;;15.00;84.00;;;;;;5089254;28;20025;-80
2022/03/23 13:10:26;;;;;;;7.00;4.93;;;15.00;83.40;;;;;;5089150;28;20476;-80
2022/03/23 13:13:08;;;;;;;9.57;5.25;;;15.10;84.20;;;;;;5074067;28;20028;-80
2022/03/23 13:15:34;;;;;;;7.88;4.95;;;15.10;83.90;;;;;;5089461;28;20103;-80
2022/03/23 13:18:00;;;;;;;8.50;4.75;;;15.20;83.20;;;;;;5089381;28;20120;-79